RJOK(METAR)
08/23 20:00
METAR RJOK 231100Z 36003KT 9999 FEW010 SCT070 BKN100 27/24 Q1009 RMK
1ST010 3AC070 6AC100 A2981=
戻る
トップページへ戻る
IMOC Co,.Ltd.